sensor_id;sensor_type;location;lat;lon;timestamp;P1;durP1;ratioP1;P2;durP2;ratioP2
42246;SDS011;27913;42.722;23.268;2022-12-18T00:00:05;10.00;;;5.60;;
42246;SDS011;27913;42.722;23.268;2022-12-18T00:02:31;7.72;;;3.42;;
42246;SDS011;27913;42.722;23.268;2022-12-18T00:04:57;9.80;;;4.15;;
42246;SDS011;27913;42.722;23.268;2022-12-18T00:07:22;10.68;;;4.55;;
42246;SDS011;27913;42.722;23.268;2022-12-18T00:09:47;5.85;;;2.67;;
42246;SDS011;27913;42.722;23.268;2022-12-18T00:12:13;8.95;;;4.70;;
42246;SDS011;27913;42.722;23.268;2022-12-18T00:14:39;9.85;;;4.43;;
42246;SDS011;27913;42.722;23.268;2022-12-18T00:17:04;9.63;;;4.63;;
42246;SDS011;27913;42.722;23.268;2022-12-18T00:19:30;9.18;;;4.47;;
42246;SDS011;27913;42.722;23.268;2022-12-18T00:21:55;9.90;;;4.85;;
42246;SDS011;27913;42.722;23.268;2022-12-18T00:24:23;6.40;;;3.05;;
42246;SDS011;27913;42.722;23.268;2022-12-18T00:26:48;9.18;;;3.95;;
42246;SDS011;27913;42.722;23.268;2022-12-18T00:29:14;13.07;;;4.97;;
42246;SDS011;27913;42.722;23.268;2022-12-18T00:31:40;9.43;;;3.40;;
42246;SDS011;27913;42.722;23.268;2022-12-18T00:34:08;6.78;;;3.47;;
42246;SDS011;27913;42.722;23.268;2022-12-18T00:36:36;11.80;;;5.47;;
42246;SDS011;27913;42.722;23.268;2022-12-18T00:39:03;11.38;;;6.00;;
42246;SDS011;27913;42.722;23.268;2022-12-18T00:41:29;10.90;;;4.80;;
42246;SDS011;27913;42.722;23.268;2022-12-18T00:44:15;9.82;;;4.13;;
42246;SDS011;27913;42.722;23.268;2022-12-18T00:46:42;9.75;;;4.40;;
42246;SDS011;27913;42.722;23.268;2022-12-18T00:49:08;8.27;;;4.20;;
42246;SDS011;27913;42.722;23.268;2022-12-18T00:51:34;9.27;;;4.45;;
42246;SDS011;27913;42.722;23.268;2022-12-18T00:53:59;7.45;;;3.78;;
42246;SDS011;27913;42.722;23.268;2022-12-18T00:56:25;7.82;;;3.70;;
42246;SDS011;27913;42.722;23.268;2022-12-18T00:58:51;10.35;;;5.30;;
42246;SDS011;27913;42.722;23.268;2022-12-18T01:03:51;11.00;;;5.13;;
42246;SDS011;27913;42.722;23.268;2022-12-18T01:06:18;11.85;;;5.32;;
42246;SDS011;27913;42.722;23.268;2022-12-18T01:08:43;12.02;;;5.30;;
42246;SDS011;27913;42.722;23.268;2022-12-18T01:11:10;9.82;;;4.70;;
42246;SDS011;27913;42.722;23.268;2022-12-18T01:13:38;14.27;;;4.65;;
42246;SDS011;27913;42.722;23.268;2022-12-18T01:16:03;8.45;;;4.60;;
42246;SDS011;27913;42.722;23.268;2022-12-18T01:18:29;12.30;;;6.05;;
42246;SDS011;27913;42.722;23.268;2022-12-18T01:20:55;12.55;;;5.32;;
42246;SDS011;27913;42.722;23.268;2022-12-18T01:23:20;12.75;;;5.82;;
42246;SDS011;27913;42.722;23.268;2022-12-18T01:25:46;10.20;;;4.95;;
42246;SDS011;27913;42.722;23.268;2022-12-18T01:28:11;10.68;;;4.97;;
42246;SDS011;27913;42.722;23.268;2022-12-18T01:30:37;11.48;;;6.00;;
42246;SDS011;27913;42.722;23.268;2022-12-18T01:33:04;11.15;;;5.18;;
42246;SDS011;27913;42.722;23.268;2022-12-18T01:35:30;10.32;;;4.72;;
42246;SDS011;27913;42.722;23.268;2022-12-18T01:37:56;11.68;;;5.43;;
42246;SDS011;27913;42.722;23.268;2022-12-18T01:40:22;9.63;;;4.18;;
42246;SDS011;27913;42.722;23.268;2022-12-18T01:42:51;9.20;;;4.68;;
42246;SDS011;27913;42.722;23.268;2022-12-18T01:50:11;13.20;;;5.45;;
42246;SDS011;27913;42.722;23.268;2022-12-18T01:52:50;14.48;;;5.53;;
42246;SDS011;27913;42.722;23.268;2022-12-18T01:55:19;9.40;;;4.00;;
42246;SDS011;27913;42.722;23.268;2022-12-18T01:57:47;7.30;;;3.05;;
42246;SDS011;27913;42.722;23.268;2022-12-18T02:00:15;10.93;;;5.38;;
42246;SDS011;27913;42.722;23.268;2022-12-18T02:02:43;10.10;;;4.65;;
42246;SDS011;27913;42.722;23.268;2022-12-18T02:05:10;10.73;;;5.95;;
42246;SDS011;27913;42.722;23.268;2022-12-18T02:10:06;10.77;;;4.72;;
42246;SDS011;27913;42.722;23.268;2022-12-18T02:12:42;10.85;;;5.30;;
42246;SDS011;27913;42.722;23.268;2022-12-18T02:18:53;10.85;;;4.20;;
42246;SDS011;27913;42.722;23.268;2022-12-18T02:21:22;7.28;;;3.17;;
42246;SDS011;27913;42.722;23.268;2022-12-18T02:26:30;10.07;;;3.78;;
42246;SDS011;27913;42.722;23.268;2022-12-18T02:29:05;10.48;;;4.15;;
42246;SDS011;27913;42.722;23.268;2022-12-18T02:31:42;10.30;;;4.13;;
42246;SDS011;27913;42.722;23.268;2022-12-18T02:34:13;10.07;;;4.25;;
42246;SDS011;27913;42.722;23.268;2022-12-18T02:36:41;6.45;;;3.78;;
42246;SDS011;27913;42.722;23.268;2022-12-18T02:39:10;7.03;;;2.90;;
42246;SDS011;27913;42.722;23.268;2022-12-18T02:41:36;9.05;;;4.68;;
42246;SDS011;27913;42.722;23.268;2022-12-18T02:44:07;7.32;;;3.20;;
42246;SDS011;27913;42.722;23.268;2022-12-18T02:54:29;10.63;;;5.82;;
42246;SDS011;27913;42.722;23.268;2022-12-18T02:57:03;11.48;;;5.90;;
42246;SDS011;27913;42.722;23.268;2022-12-18T03:00:12;10.35;;;4.47;;
42246;SDS011;27913;42.722;23.268;2022-12-18T03:05:35;9.68;;;4.35;;
42246;SDS011;27913;42.722;23.268;2022-12-18T03:08:09;9.88;;;4.82;;
42246;SDS011;27913;42.722;23.268;2022-12-18T03:10:42;10.82;;;4.10;;
42246;SDS011;27913;42.722;23.268;2022-12-18T03:13:15;9.73;;;4.95;;
42246;SDS011;27913;42.722;23.268;2022-12-18T03:15:49;6.10;;;2.38;;
42246;SDS011;27913;42.722;23.268;2022-12-18T03:20:48;9.52;;;4.70;;
42246;SDS011;27913;42.722;23.268;2022-12-18T03:23:18;9.23;;;4.10;;
42246;SDS011;27913;42.722;23.268;2022-12-18T03:25:47;8.52;;;3.88;;
42246;SDS011;27913;42.722;23.268;2022-12-18T03:28:19;9.40;;;3.60;;
42246;SDS011;27913;42.722;23.268;2022-12-18T03:30:47;7.03;;;3.00;;
42246;SDS011;27913;42.722;23.268;2022-12-18T03:33:29;9.05;;;4.13;;
42246;SDS011;27913;42.722;23.268;2022-12-18T03:35:59;10.50;;;4.18;;
42246;SDS011;27913;42.722;23.268;2022-12-18T03:38:25;10.48;;;4.88;;
42246;SDS011;27913;42.722;23.268;2022-12-18T03:43:45;11.13;;;4.90;;
42246;SDS011;27913;42.722;23.268;2022-12-18T03:49:30;10.73;;;5.22;;
42246;SDS011;27913;42.722;23.268;2022-12-18T03:51:58;8.38;;;4.45;;
42246;SDS011;27913;42.722;23.268;2022-12-18T03:54:29;12.10;;;5.22;;
42246;SDS011;27913;42.722;23.268;2022-12-18T03:57:00;11.77;;;5.97;;
42246;SDS011;27913;42.722;23.268;2022-12-18T03:59:30;8.57;;;4.13;;
42246;SDS011;27913;42.722;23.268;2022-12-18T04:01:57;10.13;;;4.25;;
42246;SDS011;27913;42.722;23.268;2022-12-18T04:04:25;9.77;;;4.20;;
42246;SDS011;27913;42.722;23.268;2022-12-18T04:06:53;11.43;;;5.55;;
42246;SDS011;27913;42.722;23.268;2022-12-18T04:09:19;8.75;;;3.65;;
42246;SDS011;27913;42.722;23.268;2022-12-18T04:11:46;14.43;;;6.90;;
42246;SDS011;27913;42.722;23.268;2022-12-18T04:14:12;11.55;;;5.93;;
42246;SDS011;27913;42.722;23.268;2022-12-18T04:16:38;11.88;;;4.80;;
42246;SDS011;27913;42.722;23.268;2022-12-18T04:19:03;12.10;;;4.57;;
42246;SDS011;27913;42.722;23.268;2022-12-18T04:21:29;14.80;;;6.45;;
42246;SDS011;27913;42.722;23.268;2022-12-18T04:23:55;11.20;;;5.97;;
42246;SDS011;27913;42.722;23.268;2022-12-18T04:26:20;14.48;;;6.65;;
42246;SDS011;27913;42.722;23.268;2022-12-18T04:28:46;14.23;;;7.38;;
42246;SDS011;27913;42.722;23.268;2022-12-18T04:31:11;15.57;;;6.40;;
42246;SDS011;27913;42.722;23.268;2022-12-18T04:33:38;13.48;;;6.47;;
42246;SDS011;27913;42.722;23.268;2022-12-18T04:36:04;12.52;;;4.40;;
42246;SDS011;27913;42.722;23.268;2022-12-18T04:38:30;15.75;;;7.28;;
42246;SDS011;27913;42.722;23.268;2022-12-18T04:40:55;16.00;;;5.97;;
42246;SDS011;27913;42.722;23.268;2022-12-18T04:43:22;11.73;;;5.35;;
42246;SDS011;27913;42.722;23.268;2022-12-18T04:45:47;15.68;;;8.77;;
42246;SDS011;27913;42.722;23.268;2022-12-18T04:48:13;15.82;;;7.13;;
42246;SDS011;27913;42.722;23.268;2022-12-18T04:50:38;14.88;;;7.53;;
42246;SDS011;27913;42.722;23.268;2022-12-18T04:53:04;14.85;;;6.85;;
42246;SDS011;27913;42.722;23.268;2022-12-18T04:55:29;16.30;;;7.13;;
42246;SDS011;27913;42.722;23.268;2022-12-18T04:57:55;14.82;;;6.93;;
42246;SDS011;27913;42.722;23.268;2022-12-18T05:00:20;14.90;;;7.68;;
42246;SDS011;27913;42.722;23.268;2022-12-18T05:02:47;16.25;;;7.70;;
42246;SDS011;27913;42.722;23.268;2022-12-18T05:05:12;14.90;;;5.63;;
42246;SDS011;27913;42.722;23.268;2022-12-18T05:07:38;17.40;;;7.70;;
42246;SDS011;27913;42.722;23.268;2022-12-18T05:10:04;13.95;;;5.90;;
42246;SDS011;27913;42.722;23.268;2022-12-18T05:12:30;12.85;;;5.20;;
42246;SDS011;27913;42.722;23.268;2022-12-18T05:14:56;15.30;;;7.47;;
42246;SDS011;27913;42.722;23.268;2022-12-18T05:17:22;17.75;;;8.70;;
42246;SDS011;27913;42.722;23.268;2022-12-18T05:19:47;16.02;;;7.50;;
42246;SDS011;27913;42.722;23.268;2022-12-18T05:22:12;17.25;;;8.60;;
42246;SDS011;27913;42.722;23.268;2022-12-18T05:24:38;16.55;;;7.63;;
42246;SDS011;27913;42.722;23.268;2022-12-18T05:27:03;17.70;;;8.38;;
42246;SDS011;27913;42.722;23.268;2022-12-18T05:29:29;16.73;;;7.65;;
42246;SDS011;27913;42.722;23.268;2022-12-18T05:31:54;17.95;;;9.73;;
42246;SDS011;27913;42.722;23.268;2022-12-18T05:34:20;18.55;;;8.05;;
42246;SDS011;27913;42.722;23.268;2022-12-18T05:36:45;17.65;;;7.75;;
42246;SDS011;27913;42.722;23.268;2022-12-18T05:39:11;17.63;;;9.13;;
42246;SDS011;27913;42.722;23.268;2022-12-18T05:41:37;15.68;;;7.15;;
42246;SDS011;27913;42.722;23.268;2022-12-18T05:44:02;21.33;;;10.35;;
42246;SDS011;27913;42.722;23.268;2022-12-18T05:46:28;17.63;;;8.68;;
42246;SDS011;27913;42.722;23.268;2022-12-18T05:48:54;18.13;;;10.32;;
42246;SDS011;27913;42.722;23.268;2022-12-18T05:51:20;19.58;;;7.10;;
42246;SDS011;27913;42.722;23.268;2022-12-18T05:53:47;20.83;;;9.82;;
42246;SDS011;27913;42.722;23.268;2022-12-18T05:56:14;18.85;;;8.23;;
42246;SDS011;27913;42.722;23.268;2022-12-18T05:58:41;19.58;;;8.65;;
42246;SDS011;27913;42.722;23.268;2022-12-18T06:01:11;17.85;;;7.85;;
42246;SDS011;27913;42.722;23.268;2022-12-18T06:03:41;18.23;;;8.57;;
42246;SDS011;27913;42.722;23.268;2022-12-18T06:06:14;20.35;;;10.70;;
42246;SDS011;27913;42.722;23.268;2022-12-18T06:08:44;18.05;;;9.15;;
42246;SDS011;27913;42.722;23.268;2022-12-18T06:11:09;15.52;;;7.22;;
42246;SDS011;27913;42.722;23.268;2022-12-18T06:13:35;17.38;;;7.40;;
42246;SDS011;27913;42.722;23.268;2022-12-18T06:16:02;20.00;;;8.80;;
42246;SDS011;27913;42.722;23.268;2022-12-18T06:18:29;11.73;;;5.43;;
42246;SDS011;27913;42.722;23.268;2022-12-18T06:20:55;12.98;;;5.55;;
42246;SDS011;27913;42.722;23.268;2022-12-18T06:23:21;17.25;;;7.35;;
42246;SDS011;27913;42.722;23.268;2022-12-18T06:25:47;15.80;;;7.40;;
42246;SDS011;27913;42.722;23.268;2022-12-18T06:28:12;13.02;;;5.38;;
42246;SDS011;27913;42.722;23.268;2022-12-18T06:30:38;14.02;;;5.97;;
42246;SDS011;27913;42.722;23.268;2022-12-18T06:33:03;17.98;;;10.10;;
42246;SDS011;27913;42.722;23.268;2022-12-18T06:35:28;8.23;;;3.72;;
42246;SDS011;27913;42.722;23.268;2022-12-18T06:37:54;16.08;;;5.93;;
42246;SDS011;27913;42.722;23.268;2022-12-18T06:40:19;15.40;;;7.47;;
42246;SDS011;27913;42.722;23.268;2022-12-18T06:42:45;17.42;;;8.85;;
42246;SDS011;27913;42.722;23.268;2022-12-18T06:45:10;12.35;;;5.80;;
42246;SDS011;27913;42.722;23.268;2022-12-18T06:47:36;13.35;;;6.07;;
42246;SDS011;27913;42.722;23.268;2022-12-18T06:50:02;13.63;;;6.25;;
42246;SDS011;27913;42.722;23.268;2022-12-18T06:52:27;13.27;;;5.93;;
42246;SDS011;27913;42.722;23.268;2022-12-18T06:54:53;14.82;;;6.80;;
42246;SDS011;27913;42.722;23.268;2022-12-18T06:57:18;15.65;;;6.50;;
42246;SDS011;27913;42.722;23.268;2022-12-18T06:59:44;15.15;;;6.43;;
42246;SDS011;27913;42.722;23.268;2022-12-18T07:02:12;15.18;;;7.70;;
42246;SDS011;27913;42.722;23.268;2022-12-18T07:04:38;14.93;;;7.10;;
42246;SDS011;27913;42.722;23.268;2022-12-18T07:07:03;19.20;;;8.73;;
42246;SDS011;27913;42.722;23.268;2022-12-18T07:09:29;18.33;;;7.47;;
42246;SDS011;27913;42.722;23.268;2022-12-18T07:11:54;14.65;;;6.30;;
42246;SDS011;27913;42.722;23.268;2022-12-18T07:14:20;20.30;;;8.95;;
42246;SDS011;27913;42.722;23.268;2022-12-18T07:16:45;13.73;;;5.68;;
42246;SDS011;27913;42.722;23.268;2022-12-18T07:19:11;16.90;;;7.88;;
42246;SDS011;27913;42.722;23.268;2022-12-18T07:21:36;17.80;;;9.10;;
42246;SDS011;27913;42.722;23.268;2022-12-18T07:24:02;14.85;;;6.57;;
42246;SDS011;27913;42.722;23.268;2022-12-18T07:26:27;19.80;;;9.73;;
42246;SDS011;27913;42.722;23.268;2022-12-18T07:28:56;23.27;;;10.77;;
42246;SDS011;27913;42.722;23.268;2022-12-18T07:31:23;19.20;;;8.00;;
42246;SDS011;27913;42.722;23.268;2022-12-18T07:33:49;19.70;;;9.63;;
42246;SDS011;27913;42.722;23.268;2022-12-18T07:36:15;21.85;;;8.73;;
42246;SDS011;27913;42.722;23.268;2022-12-18T07:38:41;17.75;;;8.25;;
42246;SDS011;27913;42.722;23.268;2022-12-18T07:41:08;17.00;;;6.25;;
42246;SDS011;27913;42.722;23.268;2022-12-18T07:43:35;19.90;;;8.45;;
42246;SDS011;27913;42.722;23.268;2022-12-18T07:46:01;16.95;;;8.82;;
42246;SDS011;27913;42.722;23.268;2022-12-18T07:48:27;16.38;;;6.78;;
42246;SDS011;27913;42.722;23.268;2022-12-18T07:50:53;15.45;;;7.40;;
42246;SDS011;27913;42.722;23.268;2022-12-18T07:53:22;19.63;;;9.77;;
42246;SDS011;27913;42.722;23.268;2022-12-18T07:55:48;18.85;;;8.50;;
42246;SDS011;27913;42.722;23.268;2022-12-18T07:58:13;15.75;;;6.68;;
42246;SDS011;27913;42.722;23.268;2022-12-18T08:00:39;20.75;;;9.18;;
42246;SDS011;27913;42.722;23.268;2022-12-18T08:03:04;21.10;;;8.73;;
42246;SDS011;27913;42.722;23.268;2022-12-18T08:05:29;17.90;;;7.40;;
42246;SDS011;27913;42.722;23.268;2022-12-18T08:07:55;23.60;;;11.05;;
42246;SDS011;27913;42.722;23.268;2022-12-18T08:10:21;21.58;;;10.63;;
42246;SDS011;27913;42.722;23.268;2022-12-18T08:12:50;21.55;;;10.50;;
42246;SDS011;27913;42.722;23.268;2022-12-18T08:15:16;21.88;;;10.45;;
42246;SDS011;27913;42.722;23.268;2022-12-18T08:17:42;17.70;;;8.18;;
42246;SDS011;27913;42.722;23.268;2022-12-18T08:20:07;20.02;;;7.25;;
42246;SDS011;27913;42.722;23.268;2022-12-18T08:22:34;19.95;;;9.00;;
42246;SDS011;27913;42.722;23.268;2022-12-18T08:25:00;14.18;;;6.40;;
42246;SDS011;27913;42.722;23.268;2022-12-18T08:27:26;15.65;;;7.57;;
42246;SDS011;27913;42.722;23.268;2022-12-18T08:29:51;17.92;;;8.23;;
42246;SDS011;27913;42.722;23.268;2022-12-18T08:32:17;10.68;;;5.20;;
42246;SDS011;27913;42.722;23.268;2022-12-18T08:34:42;19.48;;;9.07;;
42246;SDS011;27913;42.722;23.268;2022-12-18T08:37:08;17.75;;;7.97;;
42246;SDS011;27913;42.722;23.268;2022-12-18T08:39:33;19.90;;;10.25;;
42246;SDS011;27913;42.722;23.268;2022-12-18T08:41:59;17.58;;;7.50;;
42246;SDS011;27913;42.722;23.268;2022-12-18T08:44:43;20.52;;;7.60;;
42246;SDS011;27913;42.722;23.268;2022-12-18T08:47:08;19.63;;;9.07;;
42246;SDS011;27913;42.722;23.268;2022-12-18T08:49:34;20.80;;;7.18;;
42246;SDS011;27913;42.722;23.268;2022-12-18T08:52:00;14.55;;;5.88;;
42246;SDS011;27913;42.722;23.268;2022-12-18T08:54:26;17.50;;;7.63;;
42246;SDS011;27913;42.722;23.268;2022-12-18T08:56:52;14.73;;;6.55;;
42246;SDS011;27913;42.722;23.268;2022-12-18T08:59:18;19.63;;;7.50;;
42246;SDS011;27913;42.722;23.268;2022-12-18T09:01:44;22.08;;;8.90;;
42246;SDS011;27913;42.722;23.268;2022-12-18T09:04:10;18.05;;;8.63;;
42246;SDS011;27913;42.722;23.268;2022-12-18T09:06:37;18.38;;;7.63;;
42246;SDS011;27913;42.722;23.268;2022-12-18T09:09:03;15.90;;;6.65;;
42246;SDS011;27913;42.722;23.268;2022-12-18T09:11:30;14.60;;;6.25;;
42246;SDS011;27913;42.722;23.268;2022-12-18T09:13:56;18.13;;;7.63;;
42246;SDS011;27913;42.722;23.268;2022-12-18T09:16:23;12.45;;;5.45;;
42246;SDS011;27913;42.722;23.268;2022-12-18T09:18:50;17.50;;;7.28;;
42246;SDS011;27913;42.722;23.268;2022-12-18T09:21:19;18.77;;;8.27;;
42246;SDS011;27913;42.722;23.268;2022-12-18T09:23:52;15.23;;;5.47;;
42246;SDS011;27913;42.722;23.268;2022-12-18T09:26:18;17.85;;;7.30;;
42246;SDS011;27913;42.722;23.268;2022-12-18T09:28:45;15.07;;;6.88;;
42246;SDS011;27913;42.722;23.268;2022-12-18T09:31:11;12.10;;;4.65;;
42246;SDS011;27913;42.722;23.268;2022-12-18T09:33:37;12.75;;;5.10;;
42246;SDS011;27913;42.722;23.268;2022-12-18T09:36:04;15.00;;;5.82;;
42246;SDS011;27913;42.722;23.268;2022-12-18T09:38:31;13.02;;;5.82;;
42246;SDS011;27913;42.722;23.268;2022-12-18T09:40:59;16.17;;;6.78;;
42246;SDS011;27913;42.722;23.268;2022-12-18T09:43:51;17.92;;;6.53;;
42246;SDS011;27913;42.722;23.268;2022-12-18T09:46:20;12.68;;;5.15;;
42246;SDS011;27913;42.722;23.268;2022-12-18T09:48:52;19.08;;;8.85;;
42246;SDS011;27913;42.722;23.268;2022-12-18T09:51:22;14.82;;;6.47;;
42246;SDS011;27913;42.722;23.268;2022-12-18T09:53:55;17.27;;;7.10;;
42246;SDS011;27913;42.722;23.268;2022-12-18T09:56:26;13.13;;;4.47;;
42246;SDS011;27913;42.722;23.268;2022-12-18T10:01:27;17.98;;;7.47;;
42246;SDS011;27913;42.722;23.268;2022-12-18T10:03:54;14.25;;;5.90;;
42246;SDS011;27913;42.722;23.268;2022-12-18T10:06:38;19.30;;;7.85;;
42246;SDS011;27913;42.722;23.268;2022-12-18T10:12:08;10.50;;;4.10;;
42246;SDS011;27913;42.722;23.268;2022-12-18T10:14:46;17.23;;;7.30;;
42246;SDS011;27913;42.722;23.268;2022-12-18T10:17:26;10.38;;;4.80;;
42246;SDS011;27913;42.722;23.268;2022-12-18T10:22:57;12.40;;;5.43;;
42246;SDS011;27913;42.722;23.268;2022-12-18T10:25:32;15.33;;;6.47;;
42246;SDS011;27913;42.722;23.268;2022-12-18T10:28:13;18.60;;;7.90;;
42246;SDS011;27913;42.722;23.268;2022-12-18T10:30:41;21.30;;;8.48;;
42246;SDS011;27913;42.722;23.268;2022-12-18T10:33:14;19.40;;;7.55;;
42246;SDS011;27913;42.722;23.268;2022-12-18T10:35:42;9.07;;;4.35;;
42246;SDS011;27913;42.722;23.268;2022-12-18T10:40:53;12.70;;;5.93;;
42246;SDS011;27913;42.722;23.268;2022-12-18T10:43:20;17.45;;;6.90;;
42246;SDS011;27913;42.722;23.268;2022-12-18T10:53:53;15.43;;;6.55;;
42246;SDS011;27913;42.722;23.268;2022-12-18T10:56:24;13.68;;;5.88;;
42246;SDS011;27913;42.722;23.268;2022-12-18T10:59:11;13.18;;;5.30;;
42246;SDS011;27913;42.722;23.268;2022-12-18T11:04:21;16.30;;;7.40;;
42246;SDS011;27913;42.722;23.268;2022-12-18T11:07:04;15.27;;;6.72;;
42246;SDS011;27913;42.722;23.268;2022-12-18T11:09:32;13.75;;;5.05;;
42246;SDS011;27913;42.722;23.268;2022-12-18T11:12:02;18.75;;;7.57;;
42246;SDS011;27913;42.722;23.268;2022-12-18T11:14:41;16.45;;;6.63;;
42246;SDS011;27913;42.722;23.268;2022-12-18T11:20:01;18.60;;;7.70;;
42246;SDS011;27913;42.722;23.268;2022-12-18T11:22:35;16.95;;;7.43;;
42246;SDS011;27913;42.722;23.268;2022-12-18T11:27:38;8.05;;;3.47;;
42246;SDS011;27913;42.722;23.268;2022-12-18T11:32:49;16.42;;;7.15;;
42246;SDS011;27913;42.722;23.268;2022-12-18T11:35:35;18.38;;;8.50;;
42246;SDS011;27913;42.722;23.268;2022-12-18T11:38:27;15.15;;;6.45;;
42246;SDS011;27913;42.722;23.268;2022-12-18T11:44:29;19.83;;;8.07;;
42246;SDS011;27913;42.722;23.268;2022-12-18T11:47:05;23.17;;;9.38;;
42246;SDS011;27913;42.722;23.268;2022-12-18T11:49:42;19.80;;;7.90;;
42246;SDS011;27913;42.722;23.268;2022-12-18T11:54:40;15.15;;;6.55;;
42246;SDS011;27913;42.722;23.268;2022-12-18T12:06:26;16.88;;;6.55;;
42246;SDS011;27913;42.722;23.268;2022-12-18T12:11:29;17.85;;;7.57;;
42246;SDS011;27913;42.722;23.268;2022-12-18T12:14:27;13.82;;;6.63;;
42246;SDS011;27913;42.722;23.268;2022-12-18T12:20:03;16.98;;;7.50;;
42246;SDS011;27913;42.722;23.268;2022-12-18T12:25:56;17.58;;;7.00;;
42246;SDS011;27913;42.722;23.268;2022-12-18T12:31:26;14.35;;;6.05;;
42246;SDS011;27913;42.722;23.268;2022-12-18T12:34:25;17.02;;;7.40;;
42246;SDS011;27913;42.722;23.268;2022-12-18T12:40:06;16.23;;;5.60;;
42246;SDS011;27913;42.722;23.268;2022-12-18T12:42:38;21.42;;;7.93;;
42246;SDS011;27913;42.722;23.268;2022-12-18T12:45:36;17.13;;;7.78;;
42246;SDS011;27913;42.722;23.268;2022-12-18T12:48:06;11.45;;;4.85;;
42246;SDS011;27913;42.722;23.268;2022-12-18T12:50:36;14.18;;;5.65;;
42246;SDS011;27913;42.722;23.268;2022-12-18T12:53:06;16.40;;;8.25;;
42246;SDS011;27913;42.722;23.268;2022-12-18T12:55:37;18.67;;;8.23;;
42246;SDS011;27913;42.722;23.268;2022-12-18T12:58:16;14.65;;;6.85;;
42246;SDS011;27913;42.722;23.268;2022-12-18T13:03:58;17.00;;;7.63;;
42246;SDS011;27913;42.722;23.268;2022-12-18T13:09:08;19.00;;;7.82;;
42246;SDS011;27913;42.722;23.268;2022-12-18T13:14:32;20.23;;;8.13;;
42246;SDS011;27913;42.722;23.268;2022-12-18T13:19:42;8.80;;;3.20;;
42246;SDS011;27913;42.722;23.268;2022-12-18T13:22:22;15.02;;;6.22;;
42246;SDS011;27913;42.722;23.268;2022-12-18T13:24:49;18.60;;;7.88;;
42246;SDS011;27913;42.722;23.268;2022-12-18T13:43:50;15.27;;;6.50;;
42246;SDS011;27913;42.722;23.268;2022-12-18T13:48:49;10.65;;;4.25;;
42246;SDS011;27913;42.722;23.268;2022-12-18T13:51:17;15.60;;;5.03;;
42246;SDS011;27913;42.722;23.268;2022-12-18T13:53:56;16.05;;;6.00;;
42246;SDS011;27913;42.722;23.268;2022-12-18T13:56:31;15.25;;;5.47;;
42246;SDS011;27913;42.722;23.268;2022-12-18T14:01:42;9.00;;;3.47;;
42246;SDS011;27913;42.722;23.268;2022-12-18T14:04:27;10.57;;;4.45;;
42246;SDS011;27913;42.722;23.268;2022-12-18T14:07:13;16.50;;;6.35;;
42246;SDS011;27913;42.722;23.268;2022-12-18T14:09:42;17.55;;;7.47;;
42246;SDS011;27913;42.722;23.268;2022-12-18T14:12:30;12.55;;;5.20;;
42246;SDS011;27913;42.722;23.268;2022-12-18T14:18:03;17.42;;;6.43;;
42246;SDS011;27913;42.722;23.268;2022-12-18T14:20:54;15.02;;;6.20;;
42246;SDS011;27913;42.722;23.268;2022-12-18T14:25:50;14.55;;;6.10;;
42246;SDS011;27913;42.722;23.268;2022-12-18T14:28:16;14.70;;;5.93;;
42246;SDS011;27913;42.722;23.268;2022-12-18T14:30:42;12.55;;;4.65;;
42246;SDS011;27913;42.722;23.268;2022-12-18T14:38:10;12.40;;;4.70;;
42246;SDS011;27913;42.722;23.268;2022-12-18T14:41:15;14.90;;;6.38;;
42246;SDS011;27913;42.722;23.268;2022-12-18T14:43:40;13.73;;;5.70;;
42246;SDS011;27913;42.722;23.268;2022-12-18T14:49:03;14.82;;;6.38;;
42246;SDS011;27913;42.722;23.268;2022-12-18T14:51:32;13.55;;;6.38;;
42246;SDS011;27913;42.722;23.268;2022-12-18T14:54:03;12.98;;;5.32;;
42246;SDS011;27913;42.722;23.268;2022-12-18T14:56:36;13.85;;;5.68;;
42246;SDS011;27913;42.722;23.268;2022-12-18T14:59:16;13.18;;;5.40;;
42246;SDS011;27913;42.722;23.268;2022-12-18T15:01:47;13.10;;;5.15;;
42246;SDS011;27913;42.722;23.268;2022-12-18T15:04:25;16.83;;;6.65;;
42246;SDS011;27913;42.722;23.268;2022-12-18T15:07:12;14.43;;;6.00;;
42246;SDS011;27913;42.722;23.268;2022-12-18T15:09:42;13.13;;;5.28;;
42246;SDS011;27913;42.722;23.268;2022-12-18T15:12:26;12.23;;;5.22;;
42246;SDS011;27913;42.722;23.268;2022-12-18T15:14:57;14.07;;;4.68;;
42246;SDS011;27913;42.722;23.268;2022-12-18T15:17:23;13.48;;;5.53;;
42246;SDS011;27913;42.722;23.268;2022-12-18T15:19:50;12.45;;;5.22;;
42246;SDS011;27913;42.722;23.268;2022-12-18T15:22:22;15.70;;;6.00;;
42246;SDS011;27913;42.722;23.268;2022-12-18T15:24:58;15.73;;;6.38;;
42246;SDS011;27913;42.722;23.268;2022-12-18T15:27:26;14.73;;;5.90;;
42246;SDS011;27913;42.722;23.268;2022-12-18T15:30:02;14.52;;;5.03;;
42246;SDS011;27913;42.722;23.268;2022-12-18T15:32:28;12.23;;;4.50;;
42246;SDS011;27913;42.722;23.268;2022-12-18T15:37:35;15.68;;;6.28;;
42246;SDS011;27913;42.722;23.268;2022-12-18T15:40:02;14.25;;;6.05;;
42246;SDS011;27913;42.722;23.268;2022-12-18T15:42:28;12.10;;;4.78;;
42246;SDS011;27913;42.722;23.268;2022-12-18T15:45:13;12.25;;;5.55;;
42246;SDS011;27913;42.722;23.268;2022-12-18T15:47:39;15.05;;;6.80;;
42246;SDS011;27913;42.722;23.268;2022-12-18T15:50:05;14.75;;;5.55;;
42246;SDS011;27913;42.722;23.268;2022-12-18T15:52:39;15.57;;;5.97;;
42246;SDS011;27913;42.722;23.268;2022-12-18T15:55:13;12.90;;;5.03;;
42246;SDS011;27913;42.722;23.268;2022-12-18T15:58:13;15.10;;;5.88;;
42246;SDS011;27913;42.722;23.268;2022-12-18T16:00:39;16.63;;;7.15;;
42246;SDS011;27913;42.722;23.268;2022-12-18T16:03:05;16.88;;;7.25;;
42246;SDS011;27913;42.722;23.268;2022-12-18T16:05:32;14.20;;;5.85;;
42246;SDS011;27913;42.722;23.268;2022-12-18T16:07:58;17.58;;;6.82;;
42246;SDS011;27913;42.722;23.268;2022-12-18T16:10:24;12.70;;;5.82;;
42246;SDS011;27913;42.722;23.268;2022-12-18T16:12:50;16.30;;;6.18;;
42246;SDS011;27913;42.722;23.268;2022-12-18T16:15:16;17.50;;;7.05;;
42246;SDS011;27913;42.722;23.268;2022-12-18T16:17:42;15.18;;;6.70;;
42246;SDS011;27913;42.722;23.268;2022-12-18T16:20:19;15.63;;;6.03;;
42246;SDS011;27913;42.722;23.268;2022-12-18T16:22:46;14.50;;;6.07;;
42246;SDS011;27913;42.722;23.268;2022-12-18T16:25:18;17.85;;;7.13;;
42246;SDS011;27913;42.722;23.268;2022-12-18T16:27:46;15.55;;;6.00;;
42246;SDS011;27913;42.722;23.268;2022-12-18T16:30:13;20.55;;;8.15;;
42246;SDS011;27913;42.722;23.268;2022-12-18T16:35:10;18.38;;;6.90;;
42246;SDS011;27913;42.722;23.268;2022-12-18T16:37:36;16.05;;;6.57;;
42246;SDS011;27913;42.722;23.268;2022-12-18T16:40:03;15.00;;;6.90;;
42246;SDS011;27913;42.722;23.268;2022-12-18T16:42:29;15.52;;;5.47;;
42246;SDS011;27913;42.722;23.268;2022-12-18T16:44:54;18.10;;;5.88;;
42246;SDS011;27913;42.722;23.268;2022-12-18T16:47:19;16.70;;;5.78;;
42246;SDS011;27913;42.722;23.268;2022-12-18T16:49:45;17.08;;;7.03;;
42246;SDS011;27913;42.722;23.268;2022-12-18T16:52:10;17.52;;;7.38;;
42246;SDS011;27913;42.722;23.268;2022-12-18T16:54:36;18.27;;;6.60;;
42246;SDS011;27913;42.722;23.268;2022-12-18T16:57:02;18.13;;;7.88;;
42246;SDS011;27913;42.722;23.268;2022-12-18T16:59:29;18.38;;;6.90;;
42246;SDS011;27913;42.722;23.268;2022-12-18T17:01:56;16.33;;;7.70;;